Flight Track Log - Related Links

Times and Time Zones

All times are in EDT time to prevent confusion due to time zone crossing. See the CTL13 flight status page for this flight to view local times or setup timezone preferences in your user account.

Time Position Orientation Groundspeed Altitude Reporting Facility
EDT Latitude Longitude Course Direction KTS km/h feet Rate Location/Type
Thu 22:27:47 41.8000 -87.7333 93° East 150 278 1,700  Level Chicago TRACON
Thu 22:28:54 41.7833 -87.6833 114° Southeast 156 290 2,900 1,181 Climbing Chicago TRACON
Thu 22:29:54 41.7833 -87.6333 90° East 152 282 4,200 1,263 Climbing Chicago TRACON
Thu 22:30:10 41.7739 -87.6125 121° Southeast 153 283 4,500 538 Climbing Chicago Center
Thu 22:31:12 41.7750 -87.5547 89° East 161 298 4,900 341 Climbing Chicago Center
Thu 22:32:13 41.7792 -87.4858 85° East 178 330 5,200 390 Climbing Chicago Center
Thu 22:33:00 41.7794 -87.3780 93° East  Level FlightAware Approximate
Thu 22:33:15 41.7828 -87.4186 86° East 182 336 5,700  Level Chicago Center
Thu 22:34:16 41.7867 -87.3539 85° East 177 328 6,100 585 Climbing Chicago Center
Thu 22:35:18 41.7864 -87.2944 90° East 163 303 6,900 390 Climbing Chicago Center
Thu 22:36:19 41.7856 -87.2167 91° East 175 323 6,900  Level Chicago Center
Thu 22:37:22 41.7833 -87.1475 92° East 186 344 6,900  Level Chicago Center
Thu 22:38:22 41.7814 -87.0808 92° East 182 336 6,900 50 Level Chicago Center
Thu 22:39:23 41.7986 -87.0272 67° East 173 320 7,000 98 Climbing Chicago Center
Thu 22:40:25 41.8322 -86.9839 44° Northeast 166 307 7,100  Climbing Chicago Center
Thu 22:41:26 41.8647 -86.9394 46° Northeast 169 312 7,000 -49 Descending Chicago Center
Thu 22:42:27 41.8972 -86.8939 46° Northeast 169 312 7,000  Level Chicago Center
Thu 22:43:29 41.9303 -86.8489 45° Northeast 170 315 7,000  Level Chicago Center
Thu 22:44:30 41.9708 -86.7944 45° Northeast 173 320 7,000  Level Chicago Center
Thu 22:45:31 42.0017 -86.7453 50° Northeast 173 320 7,000  Level Chicago Center
Thu 22:46:33 42.0358 -86.7011 44° Northeast 171 317 7,000  Level Chicago Center
Thu 22:47:34 42.0678 -86.6558 46° Northeast 171 317 7,000  Level Chicago Center
Thu 22:48:35 42.1006 -86.6092 47° Northeast 173 320 7,000  Level Chicago Center
Thu 22:49:37 42.1339 -86.5617 47° Northeast 173 320 7,000  Level Chicago Center
Thu 22:50:38 42.1667 -86.5150 47° Northeast 173 320 7,000  Level Chicago Center
Thu 22:51:39 42.2000 -86.4683 46° Northeast 173 320 7,000  Level Chicago Center
Thu 22:52:41 42.2400 -86.4125 46° Northeast 173 320 7,000  Level Chicago Center
Thu 22:53:42 42.2733 -86.3672 45° Northeast 171 317 7,000  Level Chicago Center
Thu 22:54:43 42.3042 -86.3244 46° Northeast 171 317 7,000  Level Chicago Center
Thu 22:55:45 42.3394 -86.2794 43° Northeast 173 320 7,000  Level Chicago Center
Thu 22:56:46 42.3733 -86.2336 45° Northeast 173 320 7,000  Level Chicago Center
Thu 22:57:47 42.4086 -86.1867 44° Northeast 175 323 7,000  Level Chicago Center
Thu 22:58:49 42.4522 -86.1281 45° Northeast 183 340 7,000  Level Chicago Center
Thu 22:59:51 42.4858 -86.0794 47° Northeast 180 333 7,000  Level Chicago Center
Thu 23:00:52 42.5197 -86.0289 48° Northeast 181 335 7,000  Level Chicago Center
Thu 23:01:54 42.5550 -85.9794 46° Northeast 182 336 7,000 -488 Level Chicago Center
Thu 23:02:55 42.5914 -85.9244 48° Northeast 191 354 6,000 -885 Descending Chicago Center
Thu 23:03:56 42.6311 -85.8678 46° Northeast 203 377 5,200 -787 Descending Chicago Center
Thu 23:04:57 42.6697 -85.8153 45° Northeast 200 370 4,400 -836 Descending Chicago Center
Thu 23:05:58 42.7081 -85.7642 44° Northeast 196 364 3,500 -829 Descending Chicago Center
Thu 23:07:00 42.7539 -85.7047 44° Northeast 192 356 2,700 -439 Descending Chicago Center
Thu 23:08:01 42.7892 -85.6550 46° Northeast 188 348 2,600 -246 Descending Chicago Center
Thu 23:09:02 42.8253 -85.6189 36° Northeast 176 327 2,200 -393 Descending Chicago Center
Thu 23:10:03 42.8617 -85.5847 35° Northeast 167 309 1,800 -639 Descending Chicago Center
Thu 23:11:04 42.8764 -85.5447 63° Northeast 140 259 900 -885 Descending Chicago Center
Thu 23:13:00 42.8667 -85.5167 56° Northeast  Level FlightAware Approximate

Login

Don't have an account? Register now (free) for customized features, flight alerts, and more!